Briggs, TX (78608)

1:44 PM CDT on September 21, 2014 (GMT -0500)
FaultLineFlyers Gliderport | Change Station
CLOSE
Current Station
Personal Weather Station
Location: Briggs, TX
Elevation: 1148 ft
Nearby Weather Stations

Elev 1148 ft 30.86 °N, 97.95 °W | Updated 4 minutes ago

Mostly Cloudy
Mostly Cloudy
82.1 °F
Feels Like 86 °F
N
5.0
Wind Variable Wind from SE
Gusts 0.0 mph

Today
High -- | Low -- °F
--% Chance of Precip.
Yesterday
High -- | Low -- °F
Precip. -- in
7:19 AM 7:29 PM
Waning Crescent, 6% visible
Pressure 30.08 in
Visibility 7.0 miles
Clouds Scattered Clouds 3900 ft
Mostly Cloudy 5000 ft
Heat Index 86 °F
Dew Point 71 °F
Humidity 69%
Rainfall 0.00 in
Snow Depth Not available.
UV 5 out of 12
Pollen 10.30 out of 12
Air Quality Not available.
Flu Activity Not available.
METAR KGRK 211755Z 09004KT 7SM SCT039 BKN050 30/19 A3010 RMK SLP184 58003

More Conditions Fewer Conditions

Pressure 30.08 in
Visibility 7.0 miles
Clouds Scattered Clouds 3900 ft
Mostly Cloudy 5000 ft
Heat Index 86 °F
Dew Point 71 °F
Humidity 69%
Rainfall 0.00 in
Snow Depth Not available.
UV 5 out of 12
Pollen 10.30 out of 12
Air Quality Not available.
Flu Activity Not available.
METAR KGRK 211755Z 09004KT 7SM SCT039 BKN050 30/19 A3010 RMK SLP184 58003

More Conditions Fewer Conditions

10-Day Weather Forecast

Almanac

Astronomy

Sep. 21, 2014 Rise Set
Actual Time 7:19 AM CDT 7:29 PM CDT
Civil Twilight 6:55 AM CDT 7:53 PM CDT
Nautical Twilight 6:27 AM CDT 8:21 PM CDT
Astronomical Twilight 5:58 AM CDT 8:50 PM CDT
Moon 5:02 AM CDT 6:00 PM CDT
Length of Visible Light 12h 58m
Length of Day
12h 10m
Tomorrow will be 1m 52s shorter.
Waning Crescent, 6% of the Moon is Illuminated
Today
Waning Crescent
Sep 24
New
Oct 1
First Quarter
Oct 8
Full
Oct 15
Last Quarter

Today's Extremes

State Highs State Lows

Community

WunderPhotos

Upload Photos

1,755,211 photos uploaded!

WunderBlogs® & News

Nearby

Snow Depth

Station Depth Elevation
No new snow has been reported.

Earthquake Activity

City Distance Mag. Time & Date
No recent earthquake activity has been reported nearby.
Minimum magnitude displayed is 2.5.

Coastal Water Temperatures

Place Temperature
No Stations Reporting

Nearby Weather Stations